createdAt,value
2022-08-05T00:01:20.603Z,44.50
2022-08-05T00:06:06.450Z,43.60
2022-08-05T00:10:16.535Z,43.70
2022-08-05T00:14:32.041Z,43.80
2022-08-05T00:18:48.112Z,43.90
2022-08-05T00:23:02.755Z,45.30
2022-08-05T00:27:28.399Z,45.60
2022-08-05T00:32:09.332Z,45.90
2022-08-05T00:37:12.442Z,44.90
2022-08-05T00:40:59.403Z,45.50
2022-08-05T00:45:13.540Z,46.10
2022-08-05T00:49:28.150Z,45.90
2022-08-05T00:54:02.279Z,45.90
2022-08-05T00:58:19.063Z,46.20
2022-08-05T01:02:32.428Z,46.00
2022-08-05T01:06:49.111Z,46.00
2022-08-05T01:11:10.808Z,48.10
2022-08-05T01:15:35.351Z,46.30
2022-08-05T01:20:02.479Z,47.90
2022-08-05T01:24:33.045Z,46.70
2022-08-05T01:28:53.055Z,46.20
2022-08-05T01:33:10.605Z,47.50
2022-08-05T01:37:30.108Z,47.50
2022-08-05T01:41:48.543Z,47.50
2022-08-05T01:46:07.447Z,48.50
2022-08-05T01:50:33.894Z,49.30
2022-08-05T01:54:56.147Z,49.60
2022-08-05T01:59:16.657Z,49.10
2022-08-05T02:03:35.170Z,49.20
2022-08-05T02:08:00.067Z,49.80
2022-08-05T02:12:19.727Z,49.40
2022-08-05T02:16:40.628Z,50.20
2022-08-05T02:21:02.688Z,50.10
2022-08-05T02:25:19.652Z,50.30
2022-08-05T02:29:59.703Z,50.60
2022-08-05T02:34:12.578Z,51.00
2022-08-05T02:38:35.358Z,50.50
2022-08-05T02:42:52.687Z,51.20
2022-08-05T02:47:09.094Z,50.90
2022-08-05T02:51:28.530Z,50.90
2022-08-05T02:55:59.948Z,51.00
2022-08-05T03:00:15.049Z,50.60
2022-08-05T03:04:29.136Z,51.20
2022-08-05T03:08:43.320Z,50.90
2022-08-05T03:17:11.196Z,51.10
2022-08-05T03:21:24.330Z,51.70
2022-08-05T03:26:05.035Z,50.90
2022-08-05T03:30:17.274Z,51.50
2022-08-05T03:34:34.234Z,51.20
2022-08-05T03:38:53.247Z,51.30
2022-08-05T03:43:59.218Z,50.90
2022-08-05T03:47:41.374Z,50.70
2022-08-05T03:52:37.396Z,51.40
2022-08-05T03:56:41.312Z,51.30
2022-08-05T04:00:56.784Z,51.80
2022-08-05T04:05:13.613Z,51.50
2022-08-05T04:09:28.271Z,51.30
2022-08-05T04:13:50.321Z,51.40
2022-08-05T04:18:06.762Z,51.10
2022-08-05T04:22:21.981Z,51.50
2022-08-05T04:26:35.378Z,51.70
2022-08-05T04:30:49.365Z,51.20
2022-08-05T04:35:02.928Z,51.10
2022-08-05T04:39:19.316Z,52.70
2022-08-05T04:43:32.891Z,51.70
2022-08-05T04:47:47.207Z,50.90
2022-08-05T04:52:00.802Z,50.60
2022-08-05T04:56:34.814Z,50.20
2022-08-05T05:00:50.518Z,50.00
2022-08-05T05:05:04.021Z,51.00
2022-08-05T05:09:37.498Z,50.30
2022-08-05T05:13:52.631Z,49.70
2022-08-05T05:18:09.072Z,49.50
2022-08-05T05:22:23.923Z,49.70
2022-08-05T05:26:39.766Z,49.50
2022-08-05T05:30:54.723Z,48.20
2022-08-05T05:35:08.986Z,47.10
2022-08-05T05:39:22.133Z,46.80
2022-08-05T05:43:58.385Z,46.50
2022-08-05T05:48:11.289Z,46.10
2022-08-05T05:52:33.046Z,45.70
2022-08-05T05:56:51.686Z,45.80
2022-08-05T06:01:12.956Z,45.40
2022-08-05T06:05:29.773Z,45.10
2022-08-05T06:10:00.227Z,45.00
2022-08-05T06:14:17.712Z,44.60
2022-08-05T06:18:31.761Z,45.10
2022-08-05T06:22:51.130Z,44.80
2022-08-05T06:27:04.615Z,44.20
2022-08-05T06:31:32.161Z,44.10
2022-08-05T06:36:03.485Z,44.00
2022-08-05T06:40:21.589Z,44.10
2022-08-05T06:44:41.270Z,43.90
2022-08-05T06:48:56.783Z,43.80
2022-08-05T06:53:22.370Z,43.90
2022-08-05T06:58:03.578Z,43.70
2022-08-05T07:02:15.397Z,43.70
2022-08-05T07:06:41.281Z,43.60
2022-08-05T07:10:54.400Z,43.90
2022-08-05T07:15:34.393Z,43.70
2022-08-05T07:24:35.150Z,43.60
2022-08-05T07:28:57.193Z,43.60
2022-08-05T07:33:16.607Z,43.70
2022-08-05T07:37:37.670Z,43.60
2022-08-05T07:42:13.425Z,43.90
2022-08-05T07:46:26.885Z,43.60
2022-08-05T07:50:41.400Z,45.60
2022-08-05T07:54:58.393Z,46.40
2022-08-05T07:59:11.529Z,44.80
2022-08-05T08:03:44.657Z,43.20
2022-08-05T08:08:03.023Z,43.00
2022-08-05T08:12:35.370Z,42.90
2022-08-05T08:16:53.681Z,42.40
2022-08-05T08:21:09.791Z,42.30
2022-08-05T08:26:00.032Z,42.10
2022-08-05T08:30:29.394Z,41.00
2022-08-05T08:34:37.773Z,40.80
2022-08-05T08:38:55.623Z,40.80
2022-08-05T08:44:57.872Z,40.70
2022-08-05T08:48:11.371Z,40.80
2022-08-05T08:52:26.547Z,40.20
2022-08-05T08:56:47.617Z,39.90
2022-08-05T09:05:18.502Z,38.60
2022-08-05T09:09:50.948Z,38.90
2022-08-05T09:14:54.106Z,38.20
2022-08-05T09:18:44.489Z,38.20
2022-08-05T09:23:19.028Z,38.00
2022-08-05T09:28:04.048Z,37.60
2022-08-05T09:32:51.104Z,37.40
2022-08-05T09:36:55.022Z,37.10
2022-08-05T09:41:10.886Z,37.00
2022-08-05T09:46:06.177Z,36.50
2022-08-05T09:50:12.824Z,36.30
2022-08-05T09:54:32.888Z,35.90
2022-08-05T09:58:58.216Z,35.80
2022-08-05T10:03:12.584Z,35.00
2022-08-05T10:08:10.391Z,35.10
2022-08-05T10:12:30.153Z,34.30
2022-08-05T10:16:52.875Z,33.70
2022-08-05T10:21:08.375Z,33.50
2022-08-05T10:25:24.660Z,32.90
2022-08-05T10:30:42.001Z,32.80
2022-08-05T10:34:12.752Z,32.50
2022-08-05T10:38:29.202Z,32.40
2022-08-05T10:42:51.797Z,32.00
2022-08-05T10:47:25.898Z,31.80
2022-08-05T10:51:58.335Z,30.70
2022-08-05T10:56:25.212Z,30.60
2022-08-05T11:00:42.202Z,30.00
2022-08-05T11:04:58.825Z,29.60
2022-08-05T11:09:39.130Z,29.70
2022-08-05T11:14:01.366Z,29.10
2022-08-05T11:18:27.166Z,29.20
2022-08-05T11:22:49.952Z,28.50
2022-08-05T11:27:50.767Z,28.30
2022-08-05T11:32:27.971Z,27.70
2022-08-05T11:36:52.876Z,27.20
2022-08-05T11:41:35.698Z,27.20
2022-08-05T11:46:27.452Z,27.20
2022-08-05T11:50:21.836Z,26.80
2022-08-05T11:54:38.030Z,26.80
2022-08-05T11:58:53.799Z,26.60
2022-08-05T12:03:28.586Z,26.40
2022-08-05T12:08:07.310Z,25.70
2022-08-05T12:12:23.656Z,25.70
2022-08-05T12:16:45.356Z,25.30
2022-08-05T12:21:09.701Z,25.50
2022-08-05T12:25:28.167Z,25.10
2022-08-05T12:29:42.427Z,22.50
2022-08-05T12:34:10.143Z,23.10
2022-08-05T12:38:38.246Z,21.30
2022-08-05T12:42:53.046Z,21.30
2022-08-05T12:47:07.257Z,21.40
2022-08-05T12:52:14.113Z,21.80
2022-08-05T12:56:01.733Z,21.60
2022-08-05T13:02:01.009Z,21.80
2022-08-05T13:04:56.542Z,20.70
2022-08-05T13:09:13.876Z,20.60
2022-08-05T13:14:05.964Z,20.60
2022-08-05T13:18:02.025Z,21.00
2022-08-05T13:26:50.574Z,19.80
2022-08-05T13:35:31.402Z,19.50
2022-08-05T13:40:16.400Z,20.30
2022-08-05T13:44:34.929Z,20.10
2022-08-05T13:48:57.575Z,20.50
2022-08-05T13:53:15.732Z,20.40
2022-08-05T14:02:04.992Z,19.40
2022-08-05T14:06:26.751Z,19.60
2022-08-05T14:10:40.608Z,19.40
2022-08-05T14:14:54.134Z,18.90
2022-08-05T14:19:08.611Z,18.70
2022-08-05T14:23:25.053Z,18.50
2022-08-05T14:27:40.207Z,18.10
2022-08-05T14:32:12.145Z,17.80
2022-08-05T14:36:30.684Z,17.90
2022-08-05T14:40:43.874Z,17.70
2022-08-05T14:44:57.268Z,17.50
2022-08-05T14:49:12.521Z,17.30
2022-08-05T14:53:27.171Z,17.10
2022-08-05T14:57:54.616Z,16.90
2022-08-05T15:02:14.893Z,16.80
2022-08-05T15:06:30.387Z,16.60
2022-08-05T15:10:46.242Z,16.80
2022-08-05T15:15:00.341Z,16.70
2022-08-05T15:23:38.055Z,15.60
2022-08-05T15:27:54.795Z,16.20
2022-08-05T15:32:08.228Z,16.30
2022-08-05T15:36:24.524Z,16.30
2022-08-05T15:40:59.811Z,15.90
2022-08-05T15:45:13.529Z,15.90
2022-08-05T15:49:48.105Z,16.20
2022-08-05T15:54:00.790Z,16.10
2022-08-05T15:58:16.556Z,16.30
2022-08-05T16:02:31.675Z,16.70
2022-08-05T16:06:45.759Z,17.10
2022-08-05T16:10:59.025Z,17.40
2022-08-05T16:15:18.505Z,17.90
2022-08-05T16:20:05.296Z,18.40
2022-08-05T16:24:07.560Z,19.00
2022-08-05T16:28:26.105Z,19.70
2022-08-05T16:32:40.897Z,20.20
2022-08-05T16:36:58.873Z,20.70
2022-08-05T16:42:13.652Z,21.50
2022-08-05T16:50:18.617Z,22.40
2022-08-05T16:54:33.312Z,23.30
2022-08-05T16:58:46.512Z,23.70
2022-08-05T17:02:59.668Z,24.10
2022-08-05T17:07:12.808Z,25.00
2022-08-05T17:11:27.735Z,24.90
2022-08-05T17:15:49.013Z,25.20
2022-08-05T17:20:08.162Z,25.60
2022-08-05T17:24:38.578Z,25.90
2022-08-05T17:28:55.114Z,26.30
2022-08-05T17:33:08.617Z,26.70
2022-08-05T17:37:40.617Z,26.90
2022-08-05T17:42:18.181Z,27.00
2022-08-05T17:46:30.498Z,27.80
2022-08-05T17:50:43.710Z,28.30
2022-08-05T17:54:56.918Z,28.80
2022-08-05T17:59:10.514Z,29.00
2022-08-05T18:03:59.764Z,29.20
2022-08-05T18:07:58.254Z,29.80
2022-08-05T18:12:11.873Z,29.70
2022-08-05T18:16:25.198Z,30.60
2022-08-05T18:20:40.066Z,30.80
2022-08-05T18:24:53.294Z,30.90
2022-08-05T18:29:06.555Z,31.80
2022-08-05T18:33:24.157Z,32.60
2022-08-05T18:37:40.400Z,32.90
2022-08-05T18:42:02.963Z,32.60
2022-08-05T18:46:21.230Z,32.30
2022-08-05T18:50:51.939Z,34.50
2022-08-05T18:55:10.642Z,33.90
2022-08-05T18:59:43.961Z,34.10
2022-08-05T19:03:57.568Z,35.80
2022-08-05T19:08:13.547Z,34.20
2022-08-05T19:12:32.363Z,37.70
2022-08-05T19:16:47.103Z,37.70
2022-08-05T19:21:00.621Z,39.20
2022-08-05T19:25:29.558Z,40.20
2022-08-05T19:29:47.090Z,40.90
2022-08-05T19:34:03.081Z,41.10
2022-08-05T19:38:17.364Z,41.70
2022-08-05T19:42:38.829Z,41.40
2022-08-05T19:46:54.050Z,41.20
2022-08-05T19:51:07.746Z,41.50
2022-08-05T19:56:15.092Z,40.80
2022-08-05T20:00:01.792Z,39.60
2022-08-05T20:04:19.133Z,39.80
2022-08-05T20:08:32.830Z,40.00
2022-08-05T20:12:48.995Z,40.10
2022-08-05T20:17:06.405Z,40.30
2022-08-05T20:21:22.469Z,40.70
2022-08-05T20:25:39.781Z,40.70
2022-08-05T20:29:58.282Z,41.20
2022-08-05T20:34:12.647Z,41.80
2022-08-05T20:38:29.514Z,42.30
2022-08-05T20:42:47.319Z,42.50
2022-08-05T20:47:03.141Z,42.90
2022-08-05T20:51:16.578Z,42.70
2022-08-05T20:55:56.276Z,42.00
2022-08-05T21:00:20.568Z,42.10
2022-08-05T21:04:37.925Z,42.30
2022-08-05T21:08:51.061Z,42.40
2022-08-05T21:13:11.301Z,42.70
2022-08-05T21:17:30.334Z,42.60
2022-08-05T21:21:50.799Z,42.80
2022-08-05T21:26:12.350Z,42.90
2022-08-05T21:30:29.022Z,43.00
2022-08-05T21:34:43.061Z,43.30
2022-08-05T21:38:56.296Z,43.20
2022-08-05T21:43:24.036Z,43.30
2022-08-05T21:47:56.325Z,43.30
2022-08-05T21:52:16.145Z,43.10
2022-08-05T21:56:34.493Z,43.30
2022-08-05T22:00:50.973Z,43.40
2022-08-05T22:05:08.942Z,43.60
2022-08-05T22:09:22.494Z,44.60
2022-08-05T22:14:34.263Z,44.10
2022-08-05T22:18:09.806Z,44.40
2022-08-05T22:22:27.590Z,44.70
2022-08-05T22:27:00.115Z,44.80
2022-08-05T22:31:13.236Z,45.30
2022-08-05T22:35:31.257Z,44.40
2022-08-05T22:40:02.915Z,44.00
2022-08-05T22:44:16.141Z,44.00
2022-08-05T22:48:32.324Z,43.80
2022-08-05T22:52:46.065Z,43.70
2022-08-05T22:57:00.579Z,43.70
2022-08-05T23:01:13.833Z,43.80
2022-08-05T23:05:26.945Z,44.80
2022-08-05T23:09:53.234Z,44.20
2022-08-05T23:14:13.021Z,44.80
2022-08-05T23:18:26.118Z,46.80
2022-08-05T23:22:40.892Z,47.30
2022-08-05T23:26:54.081Z,46.50
2022-08-05T23:31:17.159Z,46.40
2022-08-05T23:35:34.416Z,46.40
2022-08-05T23:39:54.385Z,46.50
2022-08-05T23:44:08.799Z,47.10
2022-08-05T23:48:23.983Z,47.30
2022-08-05T23:52:50.028Z,47.60
2022-08-05T23:57:04.972Z,47.70
